Steinkjer, Norge

23:55:CEST den 28. mai 2015 (GMT +0200)
Helgesmark/Byafossen | | Change Station
CLOSE
Current Station
Personlig værstasjon
Location: Steinkjer, NORD-TRNDELAG
Høyde over havet: 328 ft
Nearby Weather Stations

H.o.h 328 ft 64.03 °N, 11.55 °E | Updated 6 seconds ago

Clear
Klart
47.5 °F
Feels Like 48 °F
N
0.0
Vind Variabel Vind from Øst
Gusts 0.0 mph

I dag
High -- | Low -- °F
--% Chance of Precip.
I går
High -- | Low -- °F
Precip. -- tommer
3:23 AM 11:01 PM
Trekvart økende, 78% visible
Lufttrykk 29.44 tommer
Sikt -9999.0 eng. mil
Skyet
Nedkjølingseffekt 48 °F
Duggpunkt 32 °F
Fuktighet 54%
Regn 0.00 tommer
Snødybde Not available.
UV 0.0 av 12
Pollen Not available.
Luftkvalitet Not available.
Flu Activity Not available.
METAR ENVA 282120Z 09008KT CAVOK 11/03 Q0997 RMK WIND 670FT 09010KT

More Conditions Fewer Conditions

Lufttrykk 29.44 tommer
Sikt -9999.0 eng. mil
Skyet
Nedkjølingseffekt 48 °F
Duggpunkt 32 °F
Fuktighet 54%
Regn 0.00 tommer
Snødybde Not available.
UV 0.0 av 12
Pollen Not available.
Luftkvalitet Not available.
Flu Activity Not available.
METAR ENVA 282120Z 09008KT CAVOK 11/03 Q0997 RMK WIND 670FT 09010KT

More Conditions Fewer Conditions

10-Day Weather Forecast

Almanac

Astronomi

May. 28, 2015 Oppgang Nedgang
Virkelig tid
Tussmørke
Nautisk skumring
Astronomisk skumring
Månen
Lengde av synlig lys
Dagens lengde
Tomorrow will be .
, % of the Moon is Illuminated

Dagens maks og min

Country Highs Country Lows

Community

WunderPhotos

Upload Photos

1,825,076 photos uploaded!

WunderBlogs® & News

Nearby

Luftkvalitet

  Luftkvalitet AQ Indeks Forurensing
Not available.

Snødybde

Stasjon Depth Høyde over havet

Earthquake Activity

By Distance Mag. Time & Date
Minimum magnitude displayed is 2.5.

Coastal Water Temperatures

Sted Temperatur

Stations

Nearby Weather Stations

Stasjonens lokasjon Temp. Nedkjølingseffekt Duggpunkt Fuktighet Vind Precip. H.o.h Oppdatert Type